Time;durP1;ratioP1;P1;durP2;ratioP2;P2;SDS_P1;SDS_P2;PMS_P1;PMS_P2;Temp;Humidity;BMP_temperature;BMP_pressure;BME280_temperature;BME280_humidity;BME280_pressure;Samples;Min_cycle;Max_cycle;Signal;HPM_P1;HPM_P2
2023/08/26 00:00:29;;;;;;;;;21.20;21.20;;;;;26.52;34.69;99086.38;5071048;28;8849;-76
2023/08/26 00:03:18;;;;;;;;;24.25;24.25;;;;;26.55;34.84;99078.84;5073512;28;8965;-77
2023/08/26 00:05:48;;;;;;;;;24.20;24.20;;;;;26.49;34.78;99076.72;5088301;28;8854;-77
2023/08/26 00:08:17;;;;;;;;;26.60;24.60;;;;;26.57;34.99;99081.38;5052251;28;8845;-76
2023/08/26 00:10:47;;;;;;;;;20.40;19.00;;;;;26.61;34.46;99078.25;5087337;28;8846;-78
2023/08/26 00:13:16;;;;;;;;;20.40;20.40;;;;;26.60;34.50;99075.69;5088046;28;8885;-76
2023/08/26 00:15:45;;;;;;;;;24.00;23.40;;;;;26.63;34.80;99067.31;5036701;28;8946;-77
2023/08/26 00:18:14;;;;;;;;;27.40;25.40;;;;;26.64;35.53;99066.31;5087860;28;9627;-77
2023/08/26 00:20:43;;;;;;;;;25.00;23.60;;;;;26.63;34.45;99062.78;5088363;28;8849;-79
2023/08/26 00:23:12;;;;;;;;;21.40;21.40;;;;;26.62;34.58;99058.38;5088314;28;8838;-77
2023/08/26 00:25:41;;;;;;;;;23.60;23.20;;;;;26.62;34.72;99061.06;5088272;28;8865;-77
2023/08/26 00:28:11;;;;;;;;;26.00;24.40;;;;;26.64;34.80;99063.63;5089867;28;8864;-77
2023/08/26 00:30:39;;;;;;;;;21.80;21.80;;;;;26.61;34.87;99056.69;5092998;28;8878;-78
2023/08/26 00:33:09;;;;;;;;;26.00;26.00;;;;;26.56;35.72;99058.13;5093903;28;8875;-79
2023/08/26 00:35:39;;;;;;;;;23.40;22.20;;;;;26.54;34.88;99066.34;5091131;28;8856;-80
2023/08/26 00:38:09;;;;;;;;;21.80;21.80;;;;;26.54;35.02;99057.44;5090675;28;8862;-77
2023/08/26 00:40:38;;;;;;;;;26.60;25.20;;;;;26.52;35.54;99062.97;5057513;28;8861;-79
2023/08/26 00:43:08;;;;;;;;;25.80;25.60;;;;;26.51;35.22;99055.84;5073990;28;8846;-77
2023/08/26 00:45:43;;;;;;;;;21.75;21.75;;;;;26.44;34.88;99058.28;5091683;28;9623;-79
2023/08/26 00:48:13;;;;;;;;;27.60;24.60;;;;;26.40;35.80;99059.56;5091640;28;8852;-80
2023/08/26 00:50:44;;;;;;;;;25.00;25.00;;;;;26.40;35.27;99050.59;5071124;28;8836;-77
2023/08/26 00:53:15;;;;;;;;;25.00;24.20;;;;;26.37;35.75;99051.75;5071450;28;8843;-77
2023/08/26 00:55:44;;;;;;;;;26.20;26.20;;;;;26.33;36.32;99046.81;5070661;28;8933;-79
2023/08/26 00:58:15;;;;;;;;;22.00;22.00;;;;;26.35;35.68;99051.06;4986783;28;8859;-77
2023/08/26 01:00:46;;;;;;;;;26.40;24.40;;;;;26.35;35.66;99044.84;5068832;28;8836;-78
2023/08/26 01:03:15;;;;;;;;;24.60;24.60;;;;;26.33;35.77;99050.34;5070139;28;8886;-77
2023/08/26 01:05:44;;;;;;;;;25.80;24.40;;;;;26.31;36.02;99044.28;5071878;28;8861;-76
2023/08/26 01:08:13;;;;;;;;;22.50;22.25;;;;;26.34;36.16;99043.13;5088547;28;8838;-77
2023/08/26 01:10:53;;;;;;;;;22.40;22.20;;;;;26.33;36.37;99044.13;5072107;28;8902;-79
2023/08/26 01:13:28;;;;;;;;;24.25;24.25;;;;;26.24;36.64;99045.84;5088691;28;8865;-77
2023/08/26 01:16:01;;;;;;;;;30.00;28.25;;;;;26.18;37.14;99047.28;5088718;28;8865;-76
2023/08/26 01:18:30;;;;;;;;;27.75;27.75;;;;;26.12;36.69;99044.31;5071720;28;8892;-78
2023/08/26 01:21:00;;;;;;;;;27.75;27.25;;;;;26.04;36.83;99035.13;5071428;28;8854;-76
2023/08/26 01:23:37;;;;;;;;;25.60;24.40;;;;;26.07;36.79;99039.34;5088443;28;9580;-81
2023/08/26 01:26:06;;;;;;;;;25.00;23.40;;;;;26.02;36.54;99033.53;5051020;28;8854;-78
2023/08/26 01:28:35;;;;;;;;;22.40;22.40;;;;;26.05;36.28;99030.56;5060893;28;8918;-78
2023/08/26 01:31:08;;;;;;;;;22.80;22.80;;;;;25.99;36.48;99029.31;5051626;28;8847;-80
2023/08/26 01:33:43;;;;;;;;;22.80;21.40;;;;;26.04;36.43;99016.25;5067967;28;8836;-79
2023/08/26 01:36:20;;;;;;;;;22.00;22.00;;;;;26.04;36.04;99012.69;5036679;28;8844;-80
2023/08/26 01:38:53;;;;;;;;;23.40;23.20;;;;;26.06;36.38;99018.81;5051372;28;8990;-78
2023/08/26 01:41:25;;;;;;;;;27.75;27.00;;;;;26.04;37.23;99020.78;5051575;28;8946;-78
2023/08/26 01:43:56;;;;;;;;;27.50;26.75;;;;;26.02;37.15;99012.00;5035347;28;8886;-77
2023/08/26 01:46:35;;;;;;;;;26.25;26.25;;;;;26.12;36.08;99014.69;5052530;28;8982;-76
2023/08/26 01:49:04;;;;;;;;;24.50;23.50;;;;;25.98;35.90;99010.59;5036373;28;8997;-77
2023/08/26 01:51:34;;;;;;;;;26.00;24.75;;;;;25.94;36.70;99018.09;5052391;28;8867;-81
2023/08/26 01:54:06;;;;;;;;;26.75;25.00;;;;;25.94;37.16;99019.97;5051450;28;8898;-79
2023/08/26 01:56:38;;;;;;;;;26.50;26.25;;;;;25.92;37.12;99019.25;5068191;28;8844;-79
2023/08/26 01:59:07;;;;;;;;;26.25;26.00;;;;;25.89;37.24;99009.59;5018014;28;8960;-80
2023/08/26 02:01:36;;;;;;;;;24.20;22.80;;;;;25.89;36.15;99018.53;5051365;28;8867;-78
2023/08/26 02:04:05;;;;;;;;;24.25;24.25;;;;;25.82;37.56;99013.84;5064504;28;8907;-78
2023/08/26 02:06:34;;;;;;;;;24.60;23.00;;;;;25.85;36.04;99005.47;5089266;28;8838;-79
2023/08/26 02:09:03;;;;;;;;;23.40;23.40;;;;;25.81;36.04;98996.81;5097444;28;8857;-79
2023/08/26 02:11:33;;;;;;;;;22.40;22.00;;;;;25.85;36.61;98997.41;5055669;28;8988;-78
2023/08/26 02:14:02;;;;;;;;;23.40;21.40;;;;;25.84;36.54;98993.03;5072168;28;8873;-77
2023/08/26 02:16:31;;;;;;;;;25.25;25.00;;;;;25.84;36.90;98993.03;5072084;28;8936;-77
2023/08/26 02:19:00;;;;;;;;;22.80;21.80;;;;;25.83;36.46;98992.19;5089765;28;8834;-77
2023/08/26 02:21:29;;;;;;;;;26.25;26.25;;;;;25.74;37.07;98998.41;5055242;28;8846;-77
2023/08/26 02:23:58;;;;;;;;;23.40;21.60;;;;;25.65;36.39;98991.19;5071614;28;8838;-77
2023/08/26 02:26:27;;;;;;;;;25.20;23.80;;;;;25.63;37.27;98988.66;5071812;28;8842;-79
2023/08/26 02:28:58;;;;;;;;;25.00;25.00;;;;;25.30;37.67;98995.25;5088690;28;8833;-79
2023/08/26 02:31:26;;;;;;;;;21.40;21.40;;;;;25.19;38.21;98992.69;5089669;28;8858;-78
2023/08/26 02:33:55;;;;;;;;;26.00;25.60;;;;;25.31;37.53;98995.13;5089489;28;8892;-79
2023/08/26 02:36:24;;;;;;;;;28.25;24.00;;;;;25.10;38.01;98995.25;5089416;28;8862;-78
2023/08/26 02:38:53;;;;;;;;;24.60;24.60;;;;;25.23;37.22;99000.38;5062746;28;8839;-77
2023/08/26 02:41:22;;;;;;;;;21.80;21.80;;;;;25.21;37.63;98996.97;5092145;28;8844;-77
2023/08/26 02:43:51;;;;;;;;;25.25;24.50;;;;;25.35;37.27;99002.97;5095243;28;8844;-77
2023/08/26 02:46:21;;;;;;;;;22.20;22.20;;;;;25.40;37.69;98995.31;5113110;28;8901;-78
2023/08/26 02:48:51;;;;;;;;;21.60;21.20;;;;;25.33;37.80;98997.72;5093202;28;8839;-77
2023/08/26 02:51:20;;;;;;;;;25.00;24.00;;;;;25.34;37.08;99004.81;5091767;28;8916;-78
2023/08/26 02:53:49;;;;;;;;;22.80;22.00;;;;;25.33;37.03;99002.25;5109975;28;9655;-80
2023/08/26 02:56:17;;;;;;;;;23.00;22.80;;;;;25.31;37.34;99005.03;5109790;28;8874;-77
2023/08/26 02:58:46;;;;;;;;;25.60;23.40;;;;;25.22;37.56;99009.41;5109777;28;8839;-77
2023/08/26 03:01:16;;;;;;;;;22.40;21.20;;;;;25.22;37.16;99011.25;5057003;28;8844;-82
2023/08/26 03:03:48;;;;;;;;;21.40;20.00;;;;;25.27;37.08;99003.63;5091632;28;8854;-76
2023/08/26 03:06:17;;;;;;;;;23.80;21.20;;;;;25.29;36.95;99005.19;5109548;28;8843;-78
2023/08/26 03:08:46;;;;;;;;;20.20;20.20;;;;;25.31;36.50;99008.56;5091735;28;8879;-78
2023/08/26 03:11:14;;;;;;;;;20.40;20.40;;;;;25.38;36.48;99000.84;5109684;28;8848;-77
2023/08/26 03:13:44;;;;;;;;;23.80;21.80;;;;;25.41;36.75;99000.53;5056967;28;8871;-78
2023/08/26 03:16:13;;;;;;;;;20.60;20.60;;;;;25.46;36.83;99000.13;5091338;28;9747;-77
2023/08/26 03:18:42;;;;;;;;;25.75;25.75;;;;;25.49;36.16;99007.91;5091349;28;8816;-77
2023/08/26 03:21:12;;;;;;;;;21.20;21.20;;;;;25.50;36.08;99007.75;5066016;28;8887;-78
2023/08/26 03:23:41;;;;;;;;;23.25;22.50;;;;;25.53;35.94;99003.97;5049442;28;8914;-78
2023/08/26 03:26:10;;;;;;;;;22.00;22.00;;;;;25.57;35.85;99013.44;5017178;28;9037;-77
2023/08/26 03:28:39;;;;;;;;;25.40;25.40;;;;;25.58;35.28;99009.75;5066541;28;8859;-79
2023/08/26 03:31:09;;;;;;;;;23.60;23.60;;;;;25.61;35.65;99006.78;5033121;28;8885;-77
2023/08/26 03:33:45;;;;;;;;;17.40;16.20;;;;;25.61;35.20;99009.47;5049486;28;8925;-79
2023/08/26 03:36:15;;;;;;;;;28.50;25.75;;;;;25.61;35.11;99003.25;5049677;28;8852;-78
2023/08/26 03:38:44;;;;;;;;;27.00;26.80;;;;;25.64;36.02;99014.59;5068073;28;8852;-78
2023/08/26 03:41:13;;;;;;;;;26.00;25.20;;;;;25.67;35.65;99018.81;5052384;28;8840;-80
2023/08/26 03:43:42;;;;;;;;;24.00;23.40;;;;;25.70;35.76;99021.25;5052183;28;8871;-77
2023/08/26 03:46:11;;;;;;;;;26.20;24.40;;;;;25.69;35.76;99012.28;5050720;28;8950;-76
2023/08/26 03:48:40;;;;;;;;;29.25;27.00;;;;;25.69;35.54;99009.59;5068621;28;8921;-78
2023/08/26 03:51:09;;;;;;;;;27.40;25.00;;;;;25.69;35.43;99009.59;5067354;28;8856;-77
2023/08/26 03:53:40;;;;;;;;;27.00;24.25;;;;;25.70;35.79;99011.31;5090846;28;8843;-77
2023/08/26 03:56:09;;;;;;;;;23.00;22.50;;;;;25.70;35.57;99011.31;5057284;28;8974;-80
2023/08/26 03:58:40;;;;;;;;;28.00;27.40;;;;;25.70;35.72;99003.25;5101417;28;8854;-77
2023/08/26 04:01:09;;;;;;;;;24.50;23.75;;;;;25.70;35.68;99011.31;5037180;28;8896;-78
2023/08/26 04:03:38;;;;;;;;;27.75;26.75;;;;;25.65;35.95;99013.56;5074961;28;8849;-79
2023/08/26 04:06:08;;;;;;;;;31.00;30.00;;;;;25.67;36.08;99011.59;5095034;28;8982;-76
2023/08/26 04:08:37;;;;;;;;;30.25;28.75;;;;;25.63;36.15;99026.31;5094925;28;9562;-80
2023/08/26 04:11:07;;;;;;;;;29.00;26.50;;;;;25.67;36.27;99016.13;5094495;28;8843;-78
2023/08/26 04:13:36;;;;;;;;;25.80;25.20;;;;;25.69;36.17;99014.97;5094405;28;8875;-78
2023/08/26 04:16:05;;;;;;;;;30.50;26.75;;;;;25.71;36.80;99026.47;5094144;28;8958;-78
2023/08/26 04:18:34;;;;;;;;;76.25;70.25;;;;;25.76;37.11;99020.66;5094480;28;8855;-79
2023/08/26 04:21:03;;;;;;;;;45.75;38.25;;;;;25.80;36.30;99021.22;5094289;28;10044;-77
2023/08/26 04:23:32;;;;;;;;;46.25;39.75;;;;;25.84;36.20;99025.31;5094050;28;9616;-79
2023/08/26 04:26:02;;;;;;;;;33.50;32.25;;;;;25.90;36.52;99030.16;5026931;28;8936;-80
2023/08/26 04:28:33;;;;;;;;;30.75;27.25;;;;;25.93;36.34;99029.00;5093883;28;8860;-75
2023/08/26 04:31:02;;;;;;;;;37.75;33.00;;;;;25.97;36.32;99025.91;5112702;28;8912;-79
2023/08/26 04:33:31;;;;;;;;;27.25;25.00;;;;;25.99;36.51;99032.00;5112618;28;8831;-78
2023/08/26 04:36:00;;;;;;;;;31.75;29.75;;;;;25.98;36.28;99030.28;5090863;28;8852;-77
2023/08/26 04:38:30;;;;;;;;;20.75;18.75;;;;;25.97;35.96;99028.59;5049801;28;8847;-76
2023/08/26 04:40:59;;;;;;;;;30.20;29.00;;;;;25.99;35.77;99025.78;5032492;28;8851;-80
2023/08/26 04:43:28;;;;;;;;;27.75;27.75;;;;;26.03;35.81;99027.19;5048970;28;8870;-77
2023/08/26 04:45:58;;;;;;;;;37.50;33.50;;;;;26.12;36.79;99031.69;5048966;28;8867;-78
2023/08/26 04:48:28;;;;;;;;;37.75;34.25;;;;;26.16;36.77;99035.78;5032291;28;8863;-78
2023/08/26 04:50:57;;;;;;;;;34.25;32.00;;;;;26.25;36.67;99024.16;5048643;28;8851;-78
2023/08/26 04:53:26;;;;;;;;;39.25;34.25;;;;;26.33;37.07;99019.88;5048496;28;8862;-81
2023/08/26 04:55:55;;;;;;;;;37.00;32.75;;;;;26.43;36.85;99016.13;5015171;28;8971;-78
2023/08/26 04:58:24;;;;;;;;;31.25;30.25;;;;;26.50;37.06;99021.00;5048890;28;8862;-79
2023/08/26 05:00:53;;;;;;;;;36.00;30.75;;;;;26.56;37.14;99029.31;5048659;28;9639;-78
2023/08/26 05:03:24;;;;;;;;;35.75;33.25;;;;;26.60;37.28;99019.94;5048488;28;8858;-78
2023/08/26 05:05:53;;;;;;;;;42.50;36.00;;;;;26.67;37.28;99023.72;5048042;28;8889;-77
2023/08/26 05:08:22;;;;;;;;;40.75;35.75;;;;;26.63;37.73;99024.19;5048292;28;8885;-78
2023/08/26 05:10:50;;;;;;;;;44.75;37.50;;;;;26.70;38.29;99019.88;5089464;28;8842;-76
2023/08/26 05:13:19;;;;;;;;;49.00;42.00;;;;;26.73;38.29;99016.91;5054907;28;8884;-76
2023/08/26 05:15:48;;;;;;;;;55.50;46.00;;;;;26.78;38.24;99022.69;5092311;28;8927;-78
2023/08/26 05:18:18;;;;;;;;;48.50;40.50;;;;;26.93;37.72;99014.97;5089745;28;8877;-79
2023/08/26 05:20:49;;;;;;;;;39.75;33.75;;;;;27.01;37.39;99015.03;5072796;28;8850;-77
2023/08/26 05:23:18;;;;;;;;;41.00;36.00;;;;;27.10;37.52;99023.25;5038835;28;9693;-78
2023/08/26 05:25:46;;;;;;;;;37.75;34.50;;;;;27.18;37.44;99016.09;5006496;28;8849;-75
2023/08/26 05:28:16;;;;;;;;;43.00;36.67;;;;;27.30;37.59;99019.44;5099320;28;8839;-78
2023/08/26 05:30:45;;;;;;;;;31.75;29.75;;;;;27.33;37.12;99013.72;5091438;28;8846;-79
2023/08/26 05:33:15;;;;;;;;;30.25;29.50;;;;;27.45;36.94;99015.19;5094003;28;8831;-77
2023/08/26 05:35:45;;;;;;;;;28.75;28.50;;;;;27.45;36.53;99011.66;5093694;28;8988;-79
2023/08/26 05:38:15;;;;;;;;;38.25;34.00;;;;;27.51;36.54;99011.03;5109296;28;8877;-78
2023/08/26 05:40:44;;;;;;;;;33.25;29.25;;;;;27.59;35.91;99016.53;5108181;28;8854;-78
2023/08/26 05:43:13;;;;;;;;;26.50;25.00;;;;;27.69;36.01;99010.22;5058091;28;8850;-77
2023/08/26 05:45:42;;;;;;;;;48.50;39.25;;;;;27.79;35.54;99011.81;5074240;28;8854;-78
2023/08/26 05:48:11;;;;;;;;;46.75;37.75;;;;;27.86;35.33;99009.34;5090798;28;8970;-79
2023/08/26 05:50:40;;;;;;;;;26.75;26.50;;;;;27.91;34.65;99020.53;5091078;28;8889;-78
2023/08/26 05:53:08;;;;;;;;;27.60;24.80;;;;;27.97;35.13;99021.75;5090567;28;8846;-77
2023/08/26 05:55:39;;;;;;;;;26.00;23.75;;;;;28.12;34.64;99025.59;5074172;28;8863;-75
2023/08/26 05:58:09;;;;;;;;;19.75;19.75;;;;;28.21;34.83;99029.19;5091019;28;8874;-81
2023/08/26 06:00:37;;;;;;;;;25.00;24.50;;;;;28.32;35.02;99028.09;5088713;28;8913;-77
2023/08/26 06:03:07;;;;;;;;;29.50;26.50;;;;;28.45;34.76;99036.59;5037436;28;8987;-78
2023/08/26 06:05:36;;;;;;;;;27.50;26.50;;;;;28.49;35.06;99042.53;5071872;28;8938;-79
2023/08/26 06:08:06;;;;;;;;;27.75;25.75;;;;;28.60;34.82;99037.69;5071596;28;8942;-77
2023/08/26 06:10:38;;;;;;;;;24.00;24.00;;;;;28.77;34.11;99043.22;5089635;28;8849;-76
2023/08/26 06:13:07;;;;;;;;;30.50;29.25;;;;;28.91;33.88;99039.88;5071878;28;8849;-78
2023/08/26 06:15:36;;;;;;;;;25.50;25.50;;;;;29.01;33.98;99049.72;5054925;28;8849;-78
2023/08/26 06:18:05;;;;;;;;;27.75;25.25;;;;;29.14;34.25;99056.41;5071710;28;8834;-80
2023/08/26 06:20:34;;;;;;;;;26.50;25.75;;;;;29.24;34.00;99052.75;5021081;28;8877;-77
2023/08/26 06:23:03;;;;;;;;;23.50;23.50;;;;;29.33;33.17;99051.72;5089776;28;8861;-76
2023/08/26 06:25:32;;;;;;;;;27.00;27.00;;;;;29.46;33.12;99052.13;5087095;28;8880;-77
2023/08/26 06:28:03;;;;;;;;;28.00;27.25;;;;;29.62;33.49;99058.56;5046432;28;8878;-77
2023/08/26 06:30:32;;;;;;;;;25.50;25.50;;;;;29.73;33.03;99050.97;4998681;28;8866;-76
2023/08/26 06:33:02;;;;;;;;;27.50;27.50;;;;;29.82;32.70;99056.38;5032209;28;8955;-77
2023/08/26 06:35:31;;;;;;;;;28.75;26.75;;;;;29.96;32.67;99063.84;5029700;28;8874;-76
2023/08/26 06:38:01;;;;;;;;;24.75;24.75;;;;;29.99;32.05;99066.19;5029755;28;8846;-78
2023/08/26 06:40:31;;;;;;;;;26.50;26.25;;;;;30.13;32.34;99068.25;5046035;28;8966;-78
2023/08/26 06:43:02;;;;;;;;;28.50;25.00;;;;;30.28;32.18;99068.44;5029895;28;8884;-78
2023/08/26 06:45:32;;;;;;;;;25.75;25.75;;;;;30.33;32.38;99070.59;5029245;28;9715;-76
2023/08/26 06:48:01;;;;;;;;;21.50;21.50;;;;;30.44;31.71;99075.69;5045801;28;8894;-77
2023/08/26 06:50:30;;;;;;;;;26.00;25.25;;;;;30.53;31.63;99071.09;5028516;28;8851;-80
2023/08/26 06:53:00;;;;;;;;;24.00;24.00;;;;;30.61;31.84;99072.94;5025764;28;8844;-77
2023/08/26 06:55:29;;;;;;;;;22.00;21.50;;;;;30.62;31.36;99070.06;5025900;28;8894;-77
2023/08/26 06:57:58;;;;;;;;;23.50;23.50;;;;;30.64;31.10;99080.72;5026008;28;8848;-78
2023/08/26 07:00:27;;;;;;;;;25.50;25.25;;;;;30.68;31.52;99072.09;5009245;28;9641;-77
2023/08/26 07:02:57;;;;;;;;;26.00;25.75;;;;;30.76;31.03;99082.06;5025800;28;8849;-77
2023/08/26 07:05:26;;;;;;;;;25.00;25.00;;;;;30.77;31.07;99082.91;5053613;28;8868;-78
2023/08/26 07:07:55;;;;;;;;;22.50;22.50;;;;;30.90;30.85;99078.63;5065913;28;8856;-78
2023/08/26 07:10:24;;;;;;;;;23.25;22.25;;;;;31.06;30.78;99083.13;5065667;28;8894;-78
2023/08/26 07:12:53;;;;;;;;;23.50;21.50;;;;;31.14;31.01;99092.28;5049192;28;8832;-78
2023/08/26 07:15:22;;;;;;;;;27.50;27.50;;;;;31.26;30.66;99088.19;5065630;28;8906;-76
2023/08/26 07:17:51;;;;;;;;;7.75;7.75;;;;;31.24;29.72;99095.63;5065756;28;8847;-79
2023/08/26 07:20:21;;;;;;;;;24.50;24.50;;;;;31.26;29.54;99090.91;5066150;28;9785;-78
2023/08/26 07:22:50;;;;;;;;;25.25;23.50;;;;;31.41;29.80;99099.13;5066278;28;8867;-77
2023/08/26 07:25:19;;;;;;;;;25.25;23.25;;;;;31.40;29.02;99095.56;5068591;28;8967;-78
2023/08/26 07:27:48;;;;;;;;;21.50;20.50;;;;;31.40;28.94;99090.13;5065862;28;10061;-76
2023/08/26 07:30:17;;;;;;;;;25.00;23.75;;;;;31.41;29.55;99093.69;5066070;28;8872;-79
2023/08/26 07:32:46;;;;;;;;;23.25;22.25;;;;;31.44;29.18;99094.16;5049001;28;8864;-77
2023/08/26 07:35:15;;;;;;;;;23.25;21.75;;;;;31.54;29.04;99091.22;5065831;28;8840;-79
2023/08/26 07:37:45;;;;;;;;;24.25;23.50;;;;;31.56;28.98;99086.47;5068598;28;8851;-76
2023/08/26 07:40:15;;;;;;;;;21.50;20.25;;;;;31.48;28.98;99087.34;5069548;28;8864;-79
2023/08/26 07:42:45;;;;;;;;;28.25;28.25;;;;;31.56;28.89;99083.75;5069643;28;8840;-78
2023/08/26 07:45:13;;;;;;;;;21.00;21.00;;;;;31.61;28.82;99088.66;5069658;28;8852;-78
2023/08/26 07:47:42;;;;;;;;;26.00;24.75;;;;;31.48;28.94;99094.66;5069592;28;8859;-79
2023/08/26 07:50:14;;;;;;;;;26.00;26.00;;;;;31.57;29.20;99087.31;5069487;28;8860;-80
2023/08/26 07:52:43;;;;;;;;;24.50;23.75;;;;;31.54;29.30;99088.50;5069383;28;8868;-76
2023/08/26 07:55:13;;;;;;;;;26.75;25.00;;;;;31.58;29.59;99092.56;5069203;28;8893;-77
2023/08/26 07:57:42;;;;;;;;;27.75;27.75;;;;;31.63;29.66;99089.31;5069201;28;9698;-79
2023/08/26 08:00:12;;;;;;;;;27.75;26.75;;;;;31.59;29.64;99088.81;5070187;28;8861;-80
2023/08/26 08:02:41;;;;;;;;;26.25;26.25;;;;;31.73;29.60;99087.25;5070916;28;8839;-76
2023/08/26 08:05:09;;;;;;;;;27.25;26.25;;;;;31.67;30.47;99094.25;5071580;28;8901;-77
2023/08/26 08:07:38;;;;;;;;;26.50;26.25;;;;;31.79;30.20;99093.84;5071510;28;9036;-79
2023/08/26 08:10:08;;;;;;;;;25.00;24.75;;;;;31.80;30.34;99090.91;5071729;28;8866;-76
2023/08/26 08:12:39;;;;;;;;;29.50;28.50;;;;;31.95;30.27;99090.97;5071995;28;8859;-79
2023/08/26 08:15:09;;;;;;;;;29.00;28.25;;;;;31.91;30.32;99092.38;5071429;28;8878;-78
2023/08/26 08:17:38;;;;;;;;;25.50;23.75;;;;;31.93;30.29;99095.75;5056285;28;8965;-79
2023/08/26 08:20:07;;;;;;;;;28.25;27.75;;;;;31.94;30.47;99092.00;5091694;28;8897;-78
2023/08/26 08:22:39;;;;;;;;;27.00;26.25;;;;;31.99;30.46;99089.56;5093361;28;8873;-78
2023/08/26 08:25:09;;;;;;;;;27.75;27.00;;;;;32.03;30.64;99092.78;5092270;28;8834;-79
2023/08/26 08:27:40;;;;;;;;;28.25;27.75;;;;;32.05;30.59;99093.44;5056731;28;8849;-78
2023/08/26 08:30:09;;;;;;;;;30.50;28.75;;;;;32.11;30.59;99091.84;5091374;28;9009;-75
2023/08/26 08:32:38;;;;;;;;;28.50;28.00;;;;;32.05;30.65;99094.28;5092221;28;8912;-78
2023/08/26 08:35:08;;;;;;;;;28.75;28.00;;;;;32.11;30.97;99094.56;5092425;28;8825;-77
2023/08/26 08:37:37;;;;;;;;;28.75;28.50;;;;;32.14;30.24;99092.38;5040198;28;9608;-79
2023/08/26 08:40:07;;;;;;;;;24.50;23.75;;;;;32.03;30.15;99096.34;5091452;28;9731;-76
2023/08/26 08:42:41;;;;;;;;;21.50;21.00;;;;;32.05;29.98;99101.59;5039876;28;8920;-76
2023/08/26 08:45:11;;;;;;;;;32.25;30.25;;;;;32.08;30.69;99098.50;5022399;28;8846;-77
2023/08/26 08:47:42;;;;;;;;;29.00;28.75;;;;;32.00;30.23;99098.59;5090742;28;8853;-75
2023/08/26 08:50:14;;;;;;;;;29.25;28.75;;;;;31.98;31.00;99098.75;5090203;28;8883;-76
2023/08/26 08:52:45;;;;;;;;;33.25;30.75;;;;;32.09;31.51;99097.50;5091186;28;8845;-75
2023/08/26 08:55:14;;;;;;;;;31.50;29.50;;;;;32.10;32.05;99092.91;5090894;28;9603;-77
2023/08/26 08:57:46;;;;;;;;;27.00;26.75;;;;;32.15;30.98;99090.50;5091224;28;8841;-77
2023/08/26 09:00:15;;;;;;;;;27.00;27.00;;;;;32.22;29.74;99092.31;5089600;28;8854;-77
2023/08/26 09:02:47;;;;;;;;;30.50;28.25;;;;;32.18;30.20;99087.41;5090960;28;8857;-79
2023/08/26 09:05:16;;;;;;;;;29.00;27.00;;;;;32.22;29.43;99081.44;5072367;28;8842;-77
2023/08/26 09:07:49;;;;;;;;;30.00;28.75;;;;;32.08;30.41;99082.19;5090649;28;9567;-78
2023/08/26 09:10:19;;;;;;;;;31.50;29.50;;;;;31.92;29.73;99082.31;5090672;28;8988;-77
2023/08/26 09:12:49;;;;;;;;;27.50;27.50;;;;;32.05;29.92;99080.69;5090862;28;8822;-77
2023/08/26 09:15:18;;;;;;;;;28.25;27.25;;;;;32.05;29.60;99077.97;5090337;28;8885;-75
2023/08/26 09:17:47;;;;;;;;;27.00;26.75;;;;;32.04;29.56;99072.72;5074060;28;8830;-76
2023/08/26 09:20:16;;;;;;;;;25.50;25.50;;;;;31.98;29.10;99070.75;5092330;28;8834;-75
2023/08/26 09:22:46;;;;;;;;;28.25;27.50;;;;;32.06;29.74;99071.50;5091741;28;8841;-76
2023/08/26 09:25:15;;;;;;;;;29.50;29.00;;;;;32.10;31.05;99071.16;5090421;28;8939;-77
2023/08/26 09:27:45;;;;;;;;;31.75;29.50;;;;;32.27;31.74;99061.81;5054806;28;8837;-78
2023/08/26 09:30:20;;;;;;;;;32.50;30.75;;;;;32.29;32.19;99062.47;5020806;28;8869;-78
2023/08/26 09:32:52;;;;;;;;;25.50;25.50;;;;;32.42;29.87;99064.56;5039216;28;8973;-76
2023/08/26 09:35:21;;;;;;;;;27.00;26.00;;;;;32.39;29.46;99067.66;5090124;28;8833;-78
2023/08/26 09:38:10;;;;;;;;;26.00;25.75;;;;;32.36;28.59;99068.03;5090584;28;8869;-79
2023/08/26 09:40:39;;;;;;;;;28.00;27.50;;;;;32.32;28.36;99075.72;5072267;28;8983;-79
2023/08/26 09:43:09;;;;;;;;;26.25;26.25;;;;;32.42;27.92;99070.84;5090433;28;8846;-78
2023/08/26 09:45:39;;;;;;;;;28.50;26.00;;;;;32.44;27.43;99070.66;5089993;28;8849;-78
2023/08/26 09:48:08;;;;;;;;;22.50;21.75;;;;;32.44;27.48;99068.78;5055855;28;8872;-77
2023/08/26 09:50:37;;;;;;;;;20.75;20.75;;;;;32.39;27.02;99070.38;5089931;28;8892;-77
2023/08/26 09:53:06;;;;;;;;;25.00;25.00;;;;;32.43;27.48;99066.25;5071887;28;8850;-76
2023/08/26 09:55:36;;;;;;;;;31.50;30.00;;;;;32.52;28.46;99062.41;5090104;28;8850;-80
2023/08/26 09:58:05;;;;;;;;;28.75;28.00;;;;;32.46;27.97;99063.16;5090035;28;8878;-76
2023/08/26 10:00:34;;;;;;;;;26.50;26.50;;;;;32.56;27.41;99063.72;5071939;28;9753;-76
2023/08/26 10:03:08;;;;;;;;;24.25;24.25;;;;;32.60;26.94;99064.19;5089394;28;8842;-77
2023/08/26 10:05:40;;;;;;;;;25.25;25.25;;;;;32.54;26.91;99063.06;5089473;28;8974;-80
2023/08/26 10:08:11;;;;;;;;;24.00;23.00;;;;;32.58;26.80;99056.25;5038253;28;8891;-80
2023/08/26 10:10:47;;;;;;;;;27.00;26.25;;;;;32.73;26.85;99056.25;5038144;28;8887;-76
2023/08/26 10:13:20;;;;;;;;;23.50;22.50;;;;;32.69;25.96;99054.09;5089496;28;8886;-79
2023/08/26 10:15:51;;;;;;;;;27.50;27.00;;;;;32.62;27.58;99043.09;5090924;28;8837;-77
2023/08/26 10:18:30;;;;;;;;;31.00;27.00;;;;;32.84;27.16;99046.75;5090716;28;8838;-77
2023/08/26 10:21:02;;;;;;;;;27.25;26.50;;;;;32.75;27.52;99047.88;5072033;28;8934;-77
2023/08/26 10:23:32;;;;;;;;;30.75;29.00;;;;;32.77;27.26;99043.09;5090032;28;8830;-77
2023/08/26 10:26:02;;;;;;;;;25.25;25.25;;;;;32.80;27.42;99045.47;5088177;28;8841;-78
2023/08/26 10:28:34;;;;;;;;;29.00;28.50;;;;;32.83;26.87;99040.47;5089877;28;8838;-80
2023/08/26 10:31:07;;;;;;;;;25.00;25.00;;;;;32.91;26.90;99039.53;5089378;28;8853;-78
2023/08/26 10:34:02;;;;;;;;;26.75;25.25;;;;;33.10;26.73;99042.72;5089121;28;8861;-78
2023/08/26 10:36:35;;;;;;;;;26.50;26.00;;;;;33.13;26.67;99034.16;5007107;28;8850;-77
2023/08/26 10:39:05;;;;;;;;;25.75;24.00;;;;;33.17;26.53;99027.31;4990605;28;8858;-78
2023/08/26 10:41:33;;;;;;;;;24.25;24.25;;;;;33.21;26.63;99031.34;5007091;28;8858;-78
2023/08/26 10:44:03;;;;;;;;;24.25;24.25;;;;;33.18;26.37;99031.72;4959441;28;8909;-78
2023/08/26 10:46:33;;;;;;;;;23.25;23.25;;;;;33.15;25.87;99032.09;5006879;28;8850;-77
2023/08/26 10:49:05;;;;;;;;;21.75;21.50;;;;;33.17;25.00;99025.44;4990799;28;8838;-79
2023/08/26 10:51:36;;;;;;;;;21.00;20.00;;;;;33.18;24.77;99026.25;4990034;28;8881;-78
2023/08/26 10:54:06;;;;;;;;;22.75;22.50;;;;;33.22;24.65;99020.25;4990703;28;8862;-79
2023/08/26 10:56:34;;;;;;;;;18.25;18.25;;;;;33.24;24.61;99014.59;5007210;28;8884;-76
2023/08/26 10:59:06;;;;;;;;;22.75;21.00;;;;;33.41;24.64;99020.63;5007093;28;9156;-76
2023/08/26 11:01:36;;;;;;;;;23.75;23.25;;;;;33.53;24.53;99021.00;5006714;28;8882;-77
2023/08/26 11:04:07;;;;;;;;;23.00;22.00;;;;;33.48;25.09;99021.56;4990122;28;8854;-77
2023/08/26 11:06:37;;;;;;;;;21.75;20.75;;;;;33.55;25.01;99017.06;5006148;28;9610;-77
2023/08/26 11:09:06;;;;;;;;;24.50;22.50;;;;;33.74;25.01;99014.72;5006401;28;8865;-78
2023/08/26 11:11:35;;;;;;;;;21.25;20.00;;;;;33.84;23.67;99019.81;5007136;28;8951;-80
2023/08/26 11:14:04;;;;;;;;;20.75;20.25;;;;;33.86;23.92;99012.28;5066840;28;8897;-77
2023/08/26 11:16:34;;;;;;;;;25.75;24.50;;;;;34.05;24.76;99005.34;5036865;28;8846;-77
2023/08/26 11:19:03;;;;;;;;;25.25;24.25;;;;;34.14;24.69;99015.06;5070332;28;8846;-76
2023/08/26 11:21:37;;;;;;;;;22.50;21.50;;;;;34.37;24.18;99003.88;5088592;28;8849;-77
2023/08/26 11:24:06;;;;;;;;;23.50;22.50;;;;;34.44;23.92;99012.97;5088592;28;9611;-77
2023/08/26 11:26:34;;;;;;;;;18.50;18.50;;;;;34.63;23.55;98997.75;5052763;28;8987;-78
2023/08/26 11:29:05;;;;;;;;;27.00;25.75;;;;;34.71;23.64;99007.66;5088226;28;8869;-82
2023/08/26 11:31:33;;;;;;;;;22.00;21.00;;;;;34.87;22.49;99000.97;5087790;28;10018;-78
2023/08/26 11:34:02;;;;;;;;;21.00;19.25;;;;;34.94;21.95;99010.91;5088691;28;8845;-78
2023/08/26 11:36:32;;;;;;;;;19.00;19.00;;;;;35.13;21.54;99000.25;5088462;28;8853;-79